createdAt,value
2023-02-25T00:01:20.425Z,2.00
2023-02-25T00:03:47.700Z,2.55
2023-02-25T00:06:15.428Z,2.20
2023-02-25T00:08:46.606Z,2.35
2023-02-25T00:11:15.361Z,2.35
2023-02-25T00:13:43.090Z,3.00
2023-02-25T00:16:10.859Z,2.50
2023-02-25T00:18:40.902Z,2.38
2023-02-25T00:21:09.768Z,3.42
2023-02-25T00:23:37.283Z,2.53
2023-02-25T00:26:09.208Z,2.78
2023-02-25T00:28:36.615Z,2.35
2023-02-25T00:31:07.598Z,2.17
2023-02-25T00:33:34.869Z,3.33
2023-02-25T00:36:05.845Z,3.88
2023-02-25T00:38:33.113Z,5.10
2023-02-25T00:41:00.357Z,2.53
2023-02-25T00:43:30.890Z,4.13
2023-02-25T00:45:58.117Z,2.80
2023-02-25T00:48:25.411Z,2.58
2023-02-25T00:50:52.627Z,3.00
2023-02-25T00:53:19.865Z,3.03
2023-02-25T00:55:47.071Z,4.25
2023-02-25T00:58:14.329Z,2.97
2023-02-25T01:00:51.554Z,3.63
2023-02-25T01:03:19.181Z,3.03
2023-02-25T01:05:49.609Z,2.72
2023-02-25T01:08:20.782Z,3.42
2023-02-25T01:10:48.507Z,2.97
2023-02-25T01:13:16.441Z,2.25
2023-02-25T01:15:44.804Z,2.55
2023-02-25T01:18:12.129Z,4.55
2023-02-25T01:20:39.988Z,3.75
2023-02-25T01:23:07.271Z,2.25
2023-02-25T01:25:34.525Z,3.05
2023-02-25T01:28:01.773Z,1.90
2023-02-25T01:30:29.048Z,2.78
2023-02-25T01:32:56.371Z,3.35
2023-02-25T01:35:23.714Z,3.17
2023-02-25T01:37:50.930Z,3.03
2023-02-25T01:40:18.297Z,3.28
2023-02-25T01:42:46.458Z,2.72
2023-02-25T01:45:20.007Z,2.67
2023-02-25T01:47:49.753Z,2.63
2023-02-25T01:50:18.217Z,2.63
2023-02-25T01:52:46.076Z,3.25
2023-02-25T01:55:13.377Z,4.57
2023-02-25T01:57:40.798Z,2.67
2023-02-25T02:00:12.583Z,2.78
2023-02-25T02:02:39.961Z,2.60
2023-02-25T02:05:07.587Z,2.90
2023-02-25T02:07:34.832Z,3.65
2023-02-25T02:10:02.425Z,2.95
2023-02-25T02:12:32.370Z,2.75
2023-02-25T02:15:00.853Z,2.58
2023-02-25T02:17:32.485Z,3.13
2023-02-25T02:20:15.317Z,2.75
2023-02-25T02:22:42.547Z,3.80
2023-02-25T02:25:18.621Z,3.45
2023-02-25T02:28:04.538Z,2.70
2023-02-25T02:30:39.983Z,3.35
2023-02-25T02:33:13.164Z,2.78
2023-02-25T02:35:48.907Z,2.80
2023-02-25T02:38:25.155Z,3.00
2023-02-25T02:40:52.422Z,2.60
2023-02-25T02:43:19.618Z,2.55
2023-02-25T02:45:46.907Z,2.83
2023-02-25T02:48:16.263Z,2.50
2023-02-25T02:50:47.994Z,2.90
2023-02-25T02:53:21.005Z,3.03
2023-02-25T02:55:50.201Z,2.50
2023-02-25T02:58:23.172Z,2.80
2023-02-25T03:00:57.366Z,2.83
2023-02-25T03:03:36.230Z,2.28
2023-02-25T03:06:09.696Z,3.13
2023-02-25T03:08:41.102Z,2.40
2023-02-25T03:11:08.381Z,2.60
2023-02-25T03:13:35.664Z,2.40
2023-02-25T03:16:05.576Z,2.65
2023-02-25T03:18:38.170Z,2.40
2023-02-25T03:21:10.132Z,2.53
2023-02-25T03:23:38.905Z,2.35
2023-02-25T03:26:12.271Z,2.53
2023-02-25T03:28:39.633Z,1.85
2023-02-25T03:31:26.373Z,2.10
2023-02-25T03:33:56.853Z,2.08
2023-02-25T03:36:26.899Z,2.33
2023-02-25T03:38:56.753Z,2.33
2023-02-25T03:41:26.782Z,1.85
2023-02-25T03:43:56.573Z,1.85
2023-02-25T03:46:24.295Z,1.80
2023-02-25T03:48:54.593Z,1.98
2023-02-25T03:51:24.859Z,2.75
2023-02-25T03:53:52.307Z,2.03
2023-02-25T03:56:19.543Z,2.15
2023-02-25T03:58:46.790Z,2.20
2023-02-25T04:01:17.342Z,3.20
2023-02-25T04:03:44.778Z,2.00
2023-02-25T04:06:15.216Z,1.92
2023-02-25T04:08:43.186Z,2.38
2023-02-25T04:11:10.464Z,1.60
2023-02-25T04:13:37.830Z,1.83
2023-02-25T04:16:05.274Z,1.30
2023-02-25T04:18:32.660Z,1.48
2023-02-25T04:20:59.877Z,1.80
2023-02-25T04:23:27.131Z,1.60
2023-02-25T04:25:54.385Z,3.08
2023-02-25T04:28:21.692Z,1.48
2023-02-25T04:30:49.222Z,1.83
2023-02-25T04:33:16.526Z,2.28
2023-02-25T04:35:44.347Z,1.80
2023-02-25T04:38:11.622Z,2.13
2023-02-25T04:40:38.880Z,2.35
2023-02-25T04:43:06.211Z,1.17
2023-02-25T04:45:33.594Z,1.75
2023-02-25T04:48:01.048Z,2.10
2023-02-25T04:50:28.344Z,1.33
2023-02-25T04:52:55.607Z,1.35
2023-02-25T04:55:22.815Z,1.58
2023-02-25T04:57:50.090Z,1.05
2023-02-25T05:00:21.426Z,1.90
2023-02-25T05:02:48.818Z,1.40
2023-02-25T05:05:16.757Z,1.48
2023-02-25T05:07:44.236Z,1.20
2023-02-25T05:10:12.504Z,1.20
2023-02-25T05:12:39.773Z,1.45
2023-02-25T05:15:08.740Z,1.77
2023-02-25T05:17:36.266Z,1.27
2023-02-25T05:20:07.398Z,1.35
2023-02-25T05:22:34.777Z,1.60
2023-02-25T05:25:02.031Z,1.45
2023-02-25T05:27:29.305Z,1.38
2023-02-25T05:29:57.480Z,2.25
2023-02-25T05:32:24.942Z,1.60
2023-02-25T05:34:52.291Z,1.35
2023-02-25T05:37:19.528Z,1.58
2023-02-25T05:39:46.783Z,1.70
2023-02-25T05:42:14.233Z,1.17
2023-02-25T05:44:41.453Z,1.42
2023-02-25T05:47:08.921Z,1.42
2023-02-25T05:49:36.189Z,2.13
2023-02-25T05:52:03.453Z,1.38
2023-02-25T05:54:30.692Z,1.35
2023-02-25T05:56:57.968Z,1.40
2023-02-25T05:59:25.227Z,1.60
2023-02-25T06:01:52.533Z,1.40
2023-02-25T06:04:19.831Z,1.77
2023-02-25T06:06:50.406Z,1.52
2023-02-25T06:09:21.402Z,1.35
2023-02-25T06:11:49.231Z,1.67
2023-02-25T06:14:17.063Z,2.78
2023-02-25T06:16:44.733Z,2.08
2023-02-25T06:19:12.499Z,1.50
2023-02-25T06:21:40.073Z,1.30
2023-02-25T06:24:07.622Z,1.20
2023-02-25T06:26:35.540Z,1.20
2023-02-25T06:29:03.025Z,1.95
2023-02-25T06:31:30.300Z,1.80
2023-02-25T06:33:57.591Z,2.47
2023-02-25T06:36:25.246Z,2.20
2023-02-25T06:38:52.710Z,1.27
2023-02-25T06:41:21.245Z,1.50
2023-02-25T06:43:52.597Z,1.70
2023-02-25T06:46:27.502Z,1.40
2023-02-25T06:48:55.741Z,1.40
2023-02-25T06:51:22.996Z,1.20
2023-02-25T06:53:53.057Z,1.00
2023-02-25T06:56:22.451Z,1.35
2023-02-25T06:58:52.595Z,1.50
2023-02-25T07:01:19.986Z,1.50
2023-02-25T07:03:47.295Z,1.23
2023-02-25T07:06:16.056Z,1.88
2023-02-25T07:08:43.354Z,1.60
2023-02-25T07:11:13.881Z,1.67
2023-02-25T07:13:43.513Z,2.15
2023-02-25T07:16:14.543Z,1.75
2023-02-25T07:18:42.217Z,1.60
2023-02-25T07:21:09.701Z,1.27
2023-02-25T07:23:36.933Z,1.40
2023-02-25T07:26:07.873Z,1.15
2023-02-25T07:28:35.407Z,1.10
2023-02-25T07:31:03.292Z,1.00
2023-02-25T07:33:31.018Z,1.30
2023-02-25T07:35:58.812Z,1.42
2023-02-25T07:38:26.098Z,1.70
2023-02-25T07:40:53.392Z,1.02
2023-02-25T07:43:20.622Z,0.95
2023-02-25T07:45:50.117Z,1.65
2023-02-25T07:48:17.381Z,1.08
2023-02-25T07:50:44.852Z,1.20
2023-02-25T07:53:12.087Z,0.80
2023-02-25T07:55:39.336Z,1.15
2023-02-25T07:58:07.579Z,1.13
2023-02-25T08:00:35.651Z,0.70
2023-02-25T08:03:02.962Z,0.90
2023-02-25T08:05:30.238Z,0.85
2023-02-25T08:07:57.461Z,0.80
2023-02-25T08:10:24.735Z,0.60
2023-02-25T08:12:52.050Z,0.70
2023-02-25T08:15:19.294Z,0.80
2023-02-25T08:17:46.613Z,0.60
2023-02-25T08:20:14.089Z,0.70
2023-02-25T08:22:41.312Z,0.80
2023-02-25T08:25:08.880Z,0.98
2023-02-25T08:27:36.969Z,0.80
2023-02-25T08:30:08.724Z,0.90
2023-02-25T08:32:36.954Z,0.70
2023-02-25T08:35:04.765Z,1.00
2023-02-25T08:37:33.389Z,1.05
2023-02-25T08:40:00.639Z,1.42
2023-02-25T08:42:28.274Z,1.13
2023-02-25T08:44:55.617Z,1.30
2023-02-25T08:47:22.880Z,1.13
2023-02-25T08:49:50.090Z,1.27
2023-02-25T08:52:17.383Z,0.70
2023-02-25T08:54:44.653Z,0.93
2023-02-25T08:57:11.916Z,1.00
2023-02-25T08:59:39.121Z,0.73
2023-02-25T09:02:07.163Z,0.32
2023-02-25T09:04:34.980Z,0.80
2023-02-25T09:07:02.606Z,0.40
2023-02-25T09:09:29.999Z,0.65
2023-02-25T09:11:57.768Z,0.60
2023-02-25T09:14:25.008Z,0.70
2023-02-25T09:16:52.381Z,0.63
2023-02-25T09:19:19.765Z,0.73
2023-02-25T09:21:50.605Z,0.75
2023-02-25T09:24:18.543Z,0.65
2023-02-25T09:26:46.264Z,0.70
2023-02-25T09:29:13.991Z,0.55
2023-02-25T09:31:41.428Z,0.70
2023-02-25T09:34:10.242Z,0.50
2023-02-25T09:36:37.497Z,0.43
2023-02-25T09:39:10.548Z,0.93
2023-02-25T09:41:43.596Z,0.60
2023-02-25T09:44:14.407Z,0.70
2023-02-25T09:46:45.828Z,0.50
2023-02-25T09:49:15.672Z,1.67
2023-02-25T09:51:45.053Z,1.45
2023-02-25T09:54:12.316Z,0.65
2023-02-25T09:56:39.873Z,1.00
2023-02-25T09:59:12.600Z,0.82
2023-02-25T10:02:00.162Z,0.40
2023-02-25T10:05:03.088Z,0.32
2023-02-25T10:07:35.430Z,0.75
2023-02-25T10:10:02.661Z,0.30
2023-02-25T10:12:38.051Z,0.43
2023-02-25T10:15:18.909Z,0.30
2023-02-25T10:17:53.853Z,0.45
2023-02-25T10:20:30.907Z,0.45
2023-02-25T10:23:03.636Z,0.60
2023-02-25T10:25:32.773Z,0.55
2023-02-25T10:28:07.666Z,0.60
2023-02-25T10:30:47.219Z,0.65
2023-02-25T10:33:16.671Z,1.88
2023-02-25T10:35:44.194Z,0.50
2023-02-25T10:38:12.917Z,0.30
2023-02-25T10:40:41.067Z,0.50
2023-02-25T10:43:20.260Z,0.50
2023-02-25T10:45:50.787Z,0.55
2023-02-25T10:48:24.819Z,0.50
2023-02-25T10:51:12.745Z,0.45
2023-02-25T10:53:40.974Z,0.40
2023-02-25T10:56:08.582Z,0.50
2023-02-25T10:58:47.945Z,0.40
2023-02-25T11:01:17.906Z,0.65
2023-02-25T11:04:01.635Z,0.60
2023-02-25T11:06:28.851Z,1.45
2023-02-25T11:08:58.688Z,0.40
2023-02-25T11:11:33.134Z,0.60
2023-02-25T11:14:05.732Z,0.43
2023-02-25T11:16:35.716Z,0.38
2023-02-25T11:19:05.614Z,0.60
2023-02-25T11:21:37.503Z,0.75
2023-02-25T11:24:07.265Z,0.40
2023-02-25T11:26:36.029Z,1.40
2023-02-25T11:29:09.369Z,1.20
2023-02-25T11:31:38.230Z,0.50
2023-02-25T11:34:07.280Z,0.60
2023-02-25T11:36:36.226Z,0.55
2023-02-25T11:39:18.623Z,0.60
2023-02-25T11:41:47.398Z,0.55
2023-02-25T11:44:17.474Z,0.40
2023-02-25T11:46:45.202Z,0.40
2023-02-25T11:49:12.445Z,0.50
2023-02-25T11:51:39.633Z,0.52
2023-02-25T11:54:25.849Z,0.38
2023-02-25T11:56:58.363Z,0.60
2023-02-25T11:59:25.603Z,0.73
2023-02-25T12:02:02.121Z,0.43
2023-02-25T12:04:29.383Z,0.40
2023-02-25T12:07:12.161Z,0.50
2023-02-25T12:09:57.627Z,0.50
2023-02-25T12:12:33.735Z,0.32
2023-02-25T12:15:25.763Z,0.45
2023-02-25T12:20:33.279Z,0.30
2023-02-25T12:23:06.825Z,1.13
2023-02-25T12:25:52.928Z,0.50
2023-02-25T12:28:32.491Z,0.93
2023-02-25T12:31:02.990Z,0.52
2023-02-25T12:33:31.961Z,0.40
2023-02-25T12:36:10.119Z,0.30
2023-02-25T12:38:49.217Z,0.45
2023-02-25T12:41:28.513Z,0.40
2023-02-25T12:44:14.544Z,0.50
2023-02-25T12:47:05.085Z,0.60
2023-02-25T12:49:47.568Z,0.60
2023-02-25T12:52:35.712Z,0.38
2023-02-25T12:55:09.076Z,0.70
2023-02-25T12:57:43.502Z,0.80
2023-02-25T13:00:22.728Z,0.93
2023-02-25T13:02:49.977Z,0.52
2023-02-25T13:05:17.197Z,0.65
2023-02-25T13:07:44.414Z,0.60
2023-02-25T13:10:11.601Z,0.70
2023-02-25T13:12:57.867Z,0.70
2023-02-25T13:15:34.010Z,0.70
2023-02-25T13:18:10.453Z,0.93
2023-02-25T13:21:11.928Z,0.43
2023-02-25T13:23:42.122Z,0.68
2023-02-25T13:26:35.528Z,0.52
2023-02-25T13:29:21.019Z,0.75
2023-02-25T13:31:51.114Z,0.60
2023-02-25T13:34:30.609Z,0.70
2023-02-25T13:37:00.636Z,0.80
2023-02-25T13:39:40.012Z,0.95
2023-02-25T13:42:32.009Z,0.70
2023-02-25T13:44:59.232Z,0.82
2023-02-25T13:47:29.259Z,0.60
2023-02-25T13:50:15.270Z,0.40
2023-02-25T13:52:55.225Z,0.60
2023-02-25T13:55:38.909Z,0.68
2023-02-25T13:58:18.442Z,0.70
2023-02-25T14:00:56.051Z,0.70
2023-02-25T14:03:26.305Z,0.90
2023-02-25T14:06:12.254Z,0.55
2023-02-25T14:08:58.482Z,0.70
2023-02-25T14:11:43.696Z,0.70
2023-02-25T14:14:10.979Z,0.77
2023-02-25T14:17:02.851Z,0.93
2023-02-25T14:19:48.523Z,0.82
2023-02-25T14:24:51.027Z,0.70
2023-02-25T14:27:36.809Z,0.65
2023-02-25T14:30:13.130Z,0.80
2023-02-25T14:32:49.653Z,0.70
2023-02-25T14:35:28.442Z,0.80
2023-02-25T14:38:12.715Z,0.88
2023-02-25T14:40:39.929Z,0.60
2023-02-25T14:43:36.525Z,1.00
2023-02-25T14:46:15.766Z,0.50
2023-02-25T14:48:43.054Z,0.63
2023-02-25T14:51:10.649Z,0.60
2023-02-25T14:53:37.871Z,0.88
2023-02-25T14:56:20.160Z,0.70
2023-02-25T14:58:47.432Z,0.70
2023-02-25T15:01:20.638Z,1.23
2023-02-25T15:03:47.905Z,1.27
2023-02-25T15:06:24.647Z,1.33
2023-02-25T15:08:54.846Z,1.20
2023-02-25T15:11:27.952Z,1.33
2023-02-25T15:14:13.648Z,1.50
2023-02-25T15:19:19.830Z,0.80
2023-02-25T15:21:49.291Z,0.85
2023-02-25T15:24:28.696Z,1.00
2023-02-25T15:26:56.938Z,1.10
2023-02-25T15:29:30.347Z,0.85
2023-02-25T15:32:17.086Z,1.02
2023-02-25T15:35:02.861Z,1.02
2023-02-25T15:40:16.040Z,0.43
2023-02-25T15:45:28.831Z,0.80
2023-02-25T15:50:47.842Z,0.77
2023-02-25T15:53:21.300Z,1.65
2023-02-25T15:55:52.599Z,0.95
2023-02-25T15:58:25.991Z,0.80
2023-02-25T16:00:56.196Z,5.70
2023-02-25T16:03:34.848Z,1.65
2023-02-25T16:06:14.237Z,0.98
2023-02-25T16:08:51.900Z,4.63
2023-02-25T16:11:25.577Z,1.60
2023-02-25T16:13:53.941Z,1.10
2023-02-25T16:16:23.091Z,1.25
2023-02-25T16:18:51.477Z,0.75
2023-02-25T16:21:26.943Z,0.90
2023-02-25T16:23:54.914Z,1.40
2023-02-25T16:26:34.399Z,0.75
2023-02-25T16:29:01.628Z,0.75
2023-02-25T16:31:52.041Z,0.80
2023-02-25T16:34:58.169Z,0.70
2023-02-25T16:37:34.650Z,1.25
2023-02-25T16:40:02.288Z,1.95
2023-02-25T16:42:32.641Z,0.90
2023-02-25T16:45:01.144Z,1.30
2023-02-25T16:47:32.705Z,5.80
2023-02-25T16:50:01.037Z,5.05
2023-02-25T16:52:31.489Z,5.15
2023-02-25T16:55:00.047Z,1.30
2023-02-25T16:57:27.792Z,11.52
2023-02-25T17:00:14.347Z,8.57
2023-02-25T17:02:46.755Z,1.30
2023-02-25T17:05:34.182Z,1.20
2023-02-25T17:08:02.582Z,2.13
2023-02-25T17:10:31.354Z,1.40
2023-02-25T17:13:00.558Z,1.73
2023-02-25T17:15:32.965Z,1.40
2023-02-25T17:18:00.229Z,2.70
2023-02-25T17:20:29.042Z,3.05
2023-02-25T17:22:57.492Z,2.13
2023-02-25T17:25:28.563Z,4.10
2023-02-25T17:27:57.834Z,3.58
2023-02-25T17:30:47.534Z,1.88
2023-02-25T17:33:29.209Z,2.45
2023-02-25T17:36:06.622Z,5.35
2023-02-25T17:38:34.068Z,2.45
2023-02-25T17:41:01.450Z,1.73
2023-02-25T17:43:36.697Z,1.80
2023-02-25T17:48:41.153Z,1.08
2023-02-25T17:51:10.294Z,2.70
2023-02-25T17:53:38.096Z,2.03
2023-02-25T17:56:08.960Z,1.83
2023-02-25T17:58:36.445Z,1.58
2023-02-25T18:01:05.876Z,2.10
2023-02-25T18:03:44.526Z,1.30
2023-02-25T18:06:27.028Z,0.80
2023-02-25T18:08:55.247Z,0.90
2023-02-25T18:11:25.305Z,1.20
2023-02-25T18:13:52.623Z,1.10
2023-02-25T18:16:39.713Z,1.00
2023-02-25T18:19:12.340Z,0.90
2023-02-25T18:21:43.014Z,1.35
2023-02-25T18:24:22.282Z,0.90
2023-02-25T18:27:07.347Z,1.17
2023-02-25T18:29:34.992Z,1.05
2023-02-25T18:32:02.489Z,1.63
2023-02-25T18:34:30.720Z,0.95
2023-02-25T18:36:58.035Z,1.63
2023-02-25T18:39:26.447Z,0.85
2023-02-25T18:41:53.771Z,0.95
2023-02-25T18:44:21.102Z,1.10
2023-02-25T18:46:48.493Z,1.10
2023-02-25T18:49:15.890Z,1.13
2023-02-25T18:51:43.140Z,1.27
2023-02-25T18:54:16.082Z,1.42
2023-02-25T18:56:43.644Z,1.70
2023-02-25T18:59:10.929Z,3.17
2023-02-25T19:01:38.787Z,2.38
2023-02-25T19:04:06.118Z,1.40
2023-02-25T19:06:34.029Z,1.50
2023-02-25T19:09:01.556Z,1.60
2023-02-25T19:11:31.512Z,1.70
2023-02-25T19:13:58.789Z,1.40
2023-02-25T19:16:26.534Z,1.40
2023-02-25T19:18:53.948Z,1.33
2023-02-25T19:21:21.875Z,1.95
2023-02-25T19:23:53.966Z,1.98
2023-02-25T19:26:21.922Z,2.05
2023-02-25T19:28:49.451Z,1.30
2023-02-25T19:31:17.985Z,1.20
2023-02-25T19:33:45.885Z,1.60
2023-02-25T19:36:13.282Z,1.38
2023-02-25T19:38:40.576Z,1.70
2023-02-25T19:41:09.708Z,2.45
2023-02-25T19:43:36.950Z,3.05
2023-02-25T19:46:07.808Z,3.05
2023-02-25T19:48:35.059Z,2.90
2023-02-25T19:51:08.893Z,3.13
2023-02-25T19:53:36.515Z,3.45
2023-02-25T19:56:03.800Z,2.40
2023-02-25T19:58:32.064Z,2.30
2023-02-25T20:01:03.933Z,1.90
2023-02-25T20:03:31.392Z,2.13
2023-02-25T20:05:58.716Z,2.08
2023-02-25T20:08:25.913Z,2.80
2023-02-25T20:10:53.152Z,3.67
2023-02-25T20:13:20.457Z,2.42
2023-02-25T20:15:47.673Z,3.60
2023-02-25T20:18:15.006Z,1.83
2023-02-25T20:20:42.843Z,2.58
2023-02-25T20:23:10.187Z,2.38
2023-02-25T20:25:37.479Z,2.95
2023-02-25T20:28:04.887Z,2.13
2023-02-25T20:30:32.211Z,3.00
2023-02-25T20:32:59.484Z,2.80
2023-02-25T20:35:26.961Z,3.25
2023-02-25T20:38:14.464Z,3.10
2023-02-25T20:40:42.046Z,2.60
2023-02-25T20:43:12.612Z,2.97
2023-02-25T20:45:40.027Z,2.95
2023-02-25T20:48:07.527Z,2.80
2023-02-25T20:50:34.981Z,3.25
2023-02-25T20:53:02.638Z,3.60
2023-02-25T20:55:30.677Z,5.28
2023-02-25T20:57:57.989Z,4.07
2023-02-25T21:00:26.023Z,4.70
2023-02-25T21:02:53.343Z,4.78
2023-02-25T21:05:20.650Z,4.35
2023-02-25T21:07:47.940Z,3.13
2023-02-25T21:10:15.207Z,4.05
2023-02-25T21:12:42.485Z,3.63
2023-02-25T21:15:10.168Z,3.58
2023-02-25T21:17:37.497Z,2.60
2023-02-25T21:20:06.948Z,2.30
2023-02-25T21:22:34.657Z,2.38
2023-02-25T21:25:01.990Z,2.80
2023-02-25T21:27:29.387Z,2.38
2023-02-25T21:29:57.006Z,4.70
2023-02-25T21:32:24.331Z,1.80
2023-02-25T21:34:51.588Z,1.92
2023-02-25T21:37:18.919Z,1.63
2023-02-25T21:39:46.185Z,1.80
2023-02-25T21:42:13.477Z,1.58
2023-02-25T21:44:40.778Z,2.00
2023-02-25T21:47:08.340Z,1.48
2023-02-25T21:49:35.576Z,1.55
2023-02-25T21:52:02.856Z,1.40
2023-02-25T21:54:30.078Z,1.30
2023-02-25T21:56:57.380Z,1.23
2023-02-25T21:59:25.616Z,1.08
2023-02-25T22:01:53.082Z,2.22
2023-02-25T22:04:20.440Z,1.80
2023-02-25T22:06:49.198Z,1.92
2023-02-25T22:09:18.141Z,1.52
2023-02-25T22:11:45.419Z,1.60
2023-02-25T22:14:12.705Z,1.67
2023-02-25T22:16:40.511Z,1.70
2023-02-25T22:19:08.053Z,1.77
2023-02-25T22:21:36.163Z,2.13
2023-02-25T22:24:04.369Z,1.42
2023-02-25T22:26:32.767Z,1.58
2023-02-25T22:29:01.822Z,1.88
2023-02-25T22:31:29.309Z,2.53
2023-02-25T22:33:57.924Z,2.05
2023-02-25T22:36:26.078Z,1.50
2023-02-25T22:38:53.730Z,1.20
2023-02-25T22:41:22.397Z,1.50
2023-02-25T22:43:49.795Z,1.20
2023-02-25T22:46:22.566Z,1.20
2023-02-25T22:48:50.805Z,0.95
2023-02-25T22:51:22.812Z,1.13
2023-02-25T22:53:50.514Z,0.98
2023-02-25T22:56:17.847Z,1.15
2023-02-25T22:58:45.144Z,0.85
2023-02-25T23:01:13.474Z,1.45
2023-02-25T23:03:40.788Z,1.95
2023-02-25T23:06:08.245Z,1.90
2023-02-25T23:08:36.221Z,1.10
2023-02-25T23:11:09.962Z,1.10
2023-02-25T23:13:37.525Z,0.85
2023-02-25T23:16:05.140Z,1.15
2023-02-25T23:18:33.617Z,1.00
2023-02-25T23:21:05.775Z,1.15
2023-02-25T23:23:38.700Z,1.25
2023-02-25T23:26:09.579Z,1.00
2023-02-25T23:28:37.068Z,1.15
2023-02-25T23:31:05.071Z,1.13
2023-02-25T23:33:32.849Z,1.73
2023-02-25T23:36:01.233Z,1.30
2023-02-25T23:38:28.815Z,1.13
2023-02-25T23:40:59.941Z,1.60
2023-02-25T23:43:27.186Z,0.93
2023-02-25T23:45:54.436Z,1.30
2023-02-25T23:48:21.751Z,1.13
2023-02-25T23:50:49.057Z,1.40
2023-02-25T23:53:16.416Z,1.30
2023-02-25T23:55:43.636Z,1.20
2023-02-25T23:58:10.920Z,1.20
